createdAt,value
2018-03-20T00:01:32.048Z,2.70
2018-03-20T00:04:01.027Z,2.10
2018-03-20T00:06:32.123Z,2.00
2018-03-20T00:09:01.098Z,2.20
2018-03-20T00:11:28.839Z,2.30
2018-03-20T00:13:56.482Z,2.10
2018-03-20T00:16:24.485Z,2.60
2018-03-20T00:18:52.256Z,2.30
2018-03-20T00:21:19.867Z,2.57
2018-03-20T00:23:47.458Z,2.27
2018-03-20T00:26:15.065Z,2.40
2018-03-20T00:28:43.438Z,2.50
2018-03-20T00:31:12.063Z,2.33
2018-03-20T00:33:40.786Z,2.17
2018-03-20T00:36:08.397Z,2.50
2018-03-20T00:38:36.781Z,2.20
2018-03-20T00:41:04.401Z,2.30
2018-03-20T00:43:32.018Z,2.63
2018-03-20T00:45:59.636Z,2.07
2018-03-20T00:48:28.040Z,2.47
2018-03-20T00:50:55.648Z,2.27
2018-03-20T00:53:23.242Z,2.30
2018-03-20T00:55:51.629Z,2.10
2018-03-20T00:58:19.223Z,2.43
2018-03-20T01:00:46.849Z,2.50
2018-03-20T01:03:14.471Z,2.27
2018-03-20T01:05:42.104Z,2.53
2018-03-20T01:08:09.717Z,2.40
2018-03-20T01:10:38.766Z,2.50
2018-03-20T01:13:06.375Z,2.30
2018-03-20T01:15:34.812Z,2.23
2018-03-20T01:18:02.448Z,2.03
2018-03-20T01:20:30.030Z,2.43
2018-03-20T01:22:57.689Z,1.97
2018-03-20T01:25:25.289Z,2.00
2018-03-20T01:27:52.929Z,2.40
2018-03-20T01:30:21.914Z,2.37
2018-03-20T01:32:49.588Z,2.23
2018-03-20T01:35:17.235Z,2.10
2018-03-20T01:37:45.446Z,2.00
2018-03-20T01:40:13.850Z,1.90
2018-03-20T01:42:41.543Z,1.90
2018-03-20T01:45:09.171Z,2.30
2018-03-20T01:47:36.890Z,2.03
2018-03-20T01:50:04.962Z,2.00
2018-03-20T01:52:32.548Z,2.07
2018-03-20T01:55:00.906Z,2.30
2018-03-20T01:57:28.578Z,2.30
2018-03-20T01:59:56.177Z,2.50
2018-03-20T02:02:24.564Z,2.30
2018-03-20T02:04:52.205Z,2.10
2018-03-20T02:07:19.826Z,2.17
2018-03-20T02:09:48.208Z,2.20
2018-03-20T02:12:16.222Z,2.03
2018-03-20T02:14:43.862Z,2.50
2018-03-20T02:17:12.227Z,2.30
2018-03-20T02:19:39.842Z,1.83
2018-03-20T02:22:07.457Z,1.83
2018-03-20T02:24:35.877Z,2.37
2018-03-20T02:27:03.575Z,2.20
2018-03-20T02:29:31.175Z,2.17
2018-03-20T02:31:59.600Z,1.83
2018-03-20T02:34:27.185Z,2.13
2018-03-20T02:36:55.394Z,2.03
2018-03-20T02:39:23.043Z,2.27
2018-03-20T02:41:51.430Z,2.00
2018-03-20T02:44:21.093Z,1.90
2018-03-20T02:46:48.694Z,1.93
2018-03-20T02:49:17.937Z,1.90
2018-03-20T02:51:46.201Z,2.10
2018-03-20T02:54:13.892Z,2.47
2018-03-20T02:56:41.948Z,2.40
2018-03-20T02:59:09.587Z,2.00
2018-03-20T03:01:37.226Z,1.87
2018-03-20T03:04:05.601Z,1.90
2018-03-20T03:06:34.161Z,2.10
2018-03-20T03:09:02.159Z,1.80
2018-03-20T03:11:30.522Z,1.93
2018-03-20T03:13:58.910Z,1.90
2018-03-20T03:16:27.320Z,2.43
2018-03-20T03:18:55.643Z,2.03
2018-03-20T03:21:23.302Z,1.90
2018-03-20T03:23:51.685Z,2.10
2018-03-20T03:26:20.463Z,1.90
2018-03-20T03:28:48.076Z,1.80
2018-03-20T03:31:15.755Z,2.00
2018-03-20T03:33:43.368Z,2.00
2018-03-20T03:36:11.005Z,2.10
2018-03-20T03:38:39.049Z,1.80
2018-03-20T03:41:07.810Z,1.63
2018-03-20T03:43:36.789Z,2.10
2018-03-20T03:46:05.833Z,1.93
2018-03-20T03:48:35.330Z,1.97
2018-03-20T03:51:02.946Z,1.70
2018-03-20T03:53:31.334Z,1.87
2018-03-20T03:56:00.436Z,1.87
2018-03-20T03:58:29.639Z,1.80
2018-03-20T04:00:57.247Z,1.80
2018-03-20T04:03:24.850Z,1.90
2018-03-20T04:05:53.279Z,2.47
2018-03-20T04:08:20.952Z,2.20
2018-03-20T04:10:49.369Z,1.67
2018-03-20T04:13:17.512Z,1.90
2018-03-20T04:15:45.142Z,1.67
2018-03-20T04:18:12.792Z,1.97
2018-03-20T04:20:40.583Z,1.90
2018-03-20T04:23:08.226Z,1.90
2018-03-20T04:25:36.562Z,1.70
2018-03-20T04:28:04.936Z,1.90
2018-03-20T04:30:33.504Z,1.77
2018-03-20T04:33:01.133Z,2.00
2018-03-20T04:35:29.357Z,1.80
2018-03-20T04:37:57.782Z,1.70
2018-03-20T04:40:26.170Z,1.47
2018-03-20T04:42:54.661Z,1.70
2018-03-20T04:45:23.682Z,1.87
2018-03-20T04:47:51.418Z,1.90
2018-03-20T04:50:19.037Z,1.67
2018-03-20T04:52:47.445Z,2.00
2018-03-20T04:55:16.154Z,1.63
2018-03-20T04:57:43.815Z,1.60
2018-03-20T05:00:11.438Z,1.70
2018-03-20T05:02:39.046Z,1.90
2018-03-20T05:05:06.693Z,1.73
2018-03-20T05:07:34.337Z,1.60
2018-03-20T05:10:01.948Z,1.47
2018-03-20T05:12:29.778Z,1.87
2018-03-20T05:14:57.445Z,1.70
2018-03-20T05:17:25.507Z,1.80
2018-03-20T05:19:53.175Z,1.80
2018-03-20T05:22:24.627Z,1.60
2018-03-20T05:24:52.298Z,2.10
2018-03-20T05:27:19.942Z,1.53
2018-03-20T05:29:47.642Z,1.70
2018-03-20T05:32:15.374Z,1.37
2018-03-20T05:34:43.003Z,1.53
2018-03-20T05:37:10.718Z,1.70
2018-03-20T05:39:38.473Z,1.70
2018-03-20T05:42:06.921Z,1.80
2018-03-20T05:44:35.713Z,1.70
2018-03-20T05:50:10.592Z,1.83
2018-03-20T05:52:39.413Z,1.40
2018-03-20T05:55:07.820Z,1.50
2018-03-20T05:57:36.117Z,1.67
2018-03-20T06:00:04.963Z,1.77
2018-03-20T06:02:34.058Z,1.50
2018-03-20T06:05:03.218Z,1.83
2018-03-20T06:07:30.905Z,1.73
2018-03-20T06:09:59.337Z,1.70
2018-03-20T06:12:26.942Z,1.87
2018-03-20T06:14:54.594Z,1.73
2018-03-20T06:17:22.233Z,1.90
2018-03-20T06:19:49.844Z,1.83
2018-03-20T06:22:18.619Z,1.90
2018-03-20T06:24:46.990Z,1.50
2018-03-20T06:27:14.635Z,1.50
2018-03-20T06:29:42.252Z,1.60
2018-03-20T06:32:09.877Z,1.70
2018-03-20T06:34:37.729Z,1.50
2018-03-20T06:37:06.390Z,1.63
2018-03-20T06:39:34.060Z,1.70
2018-03-20T06:42:02.297Z,1.43
2018-03-20T06:44:30.018Z,1.70
2018-03-20T06:46:57.659Z,1.70
2018-03-20T06:49:25.268Z,1.50
2018-03-20T06:51:53.680Z,1.70
2018-03-20T06:54:22.644Z,1.60
2018-03-20T06:56:51.279Z,1.90
2018-03-20T06:59:18.888Z,1.50
2018-03-20T07:01:47.438Z,1.87
2018-03-20T07:04:15.070Z,1.57
2018-03-20T07:06:43.489Z,1.73
2018-03-20T07:09:11.149Z,1.50
2018-03-20T07:11:38.786Z,1.40
2018-03-20T07:14:07.156Z,1.63
2018-03-20T07:16:35.466Z,1.60
2018-03-20T07:19:03.420Z,1.60
2018-03-20T07:21:31.027Z,1.70
2018-03-20T07:23:59.446Z,1.80
2018-03-20T07:26:27.069Z,1.97
2018-03-20T07:28:54.713Z,1.93
2018-03-20T07:31:23.869Z,1.40
2018-03-20T07:33:51.488Z,1.80
2018-03-20T07:36:20.609Z,1.73
2018-03-20T07:38:48.306Z,1.63
2018-03-20T07:41:17.424Z,1.70
2018-03-20T07:43:46.665Z,1.30
2018-03-20T07:46:14.337Z,1.60
2018-03-20T07:48:41.934Z,1.40
2018-03-20T07:51:09.530Z,1.60
2018-03-20T07:53:37.334Z,1.50
2018-03-20T07:56:05.789Z,1.50
2018-03-20T07:58:33.404Z,1.90
2018-03-20T08:01:01.016Z,1.50
2018-03-20T08:03:28.641Z,1.77
2018-03-20T08:05:57.029Z,1.60
2018-03-20T08:08:25.446Z,1.60
2018-03-20T08:10:53.056Z,1.27
2018-03-20T08:13:21.495Z,1.97
2018-03-20T08:15:49.134Z,1.87
2018-03-20T08:18:16.756Z,1.67
2018-03-20T08:20:44.409Z,1.53
2018-03-20T08:23:12.159Z,1.60
2018-03-20T08:25:39.836Z,1.87
2018-03-20T08:28:07.439Z,1.83
2018-03-20T08:30:35.061Z,2.00
2018-03-20T08:33:03.086Z,1.50
2018-03-20T08:35:30.726Z,1.40
2018-03-20T08:37:58.424Z,1.40
2018-03-20T08:40:26.037Z,1.80
2018-03-20T08:42:54.458Z,1.50
2018-03-20T08:45:22.069Z,1.40
2018-03-20T08:47:50.215Z,1.30
2018-03-20T08:50:17.861Z,1.67
2018-03-20T08:52:45.532Z,1.60
2018-03-20T08:55:13.480Z,1.30
2018-03-20T08:57:41.087Z,1.67
2018-03-20T09:00:09.634Z,1.37
2018-03-20T09:02:37.239Z,1.40
2018-03-20T09:05:05.691Z,1.37
2018-03-20T09:07:33.377Z,1.53
2018-03-20T09:10:01.747Z,1.33
2018-03-20T09:12:29.410Z,1.70
2018-03-20T09:14:57.782Z,1.20
2018-03-20T09:17:26.945Z,1.20
2018-03-20T09:19:54.556Z,1.37
2018-03-20T09:22:22.953Z,1.37
2018-03-20T09:24:51.307Z,1.27
2018-03-20T09:27:18.925Z,1.63
2018-03-20T09:29:46.916Z,1.60
2018-03-20T09:32:14.556Z,1.50
2018-03-20T09:34:42.169Z,1.57
2018-03-20T09:37:10.577Z,1.60
2018-03-20T09:39:38.174Z,1.40
2018-03-20T09:42:05.852Z,1.07
2018-03-20T09:44:34.053Z,1.40
2018-03-20T09:47:02.494Z,1.53
2018-03-20T09:49:30.128Z,1.10
2018-03-20T09:51:58.173Z,1.57
2018-03-20T09:54:25.807Z,1.20
2018-03-20T09:56:53.485Z,1.30
2018-03-20T09:59:21.855Z,1.20
2018-03-20T10:01:50.316Z,1.77
2018-03-20T10:04:19.610Z,1.47
2018-03-20T10:06:47.210Z,1.27
2018-03-20T10:09:16.592Z,1.47
2018-03-20T10:11:45.023Z,1.43
2018-03-20T10:14:13.248Z,1.20
2018-03-20T10:16:40.843Z,1.50
2018-03-20T10:19:08.494Z,1.23
2018-03-20T10:21:37.734Z,1.10
2018-03-20T10:24:05.410Z,1.33
2018-03-20T10:26:33.073Z,0.93
2018-03-20T10:29:01.863Z,1.47
2018-03-20T10:31:29.490Z,1.17
2018-03-20T10:33:58.673Z,1.40
2018-03-20T10:36:26.301Z,1.10
2018-03-20T10:38:54.046Z,1.30
2018-03-20T10:41:21.683Z,1.27
2018-03-20T10:43:49.359Z,0.93
2018-03-20T10:46:17.374Z,1.40
2018-03-20T10:48:45.740Z,1.10
2018-03-20T10:51:13.395Z,1.10
2018-03-20T10:53:41.725Z,1.00
2018-03-20T10:56:10.170Z,1.37
2018-03-20T10:58:38.567Z,1.40
2018-03-20T11:01:07.017Z,0.90
2018-03-20T11:03:34.651Z,1.07
2018-03-20T11:06:02.264Z,0.80
2018-03-20T11:08:29.912Z,1.30
2018-03-20T11:10:58.312Z,1.30
2018-03-20T11:13:25.938Z,1.10
2018-03-20T11:15:54.941Z,0.90
2018-03-20T11:18:23.481Z,1.20
2018-03-20T11:20:51.248Z,0.90
2018-03-20T11:23:19.473Z,1.00
2018-03-20T11:25:47.865Z,1.00
2018-03-20T11:28:15.482Z,1.27
2018-03-20T11:30:43.242Z,1.30
2018-03-20T11:33:10.869Z,0.80
2018-03-20T11:35:38.465Z,1.10
2018-03-20T11:38:06.109Z,1.10
2018-03-20T11:40:33.781Z,1.23
2018-03-20T11:43:01.640Z,1.00
2018-03-20T11:45:29.247Z,1.07
2018-03-20T11:47:57.623Z,1.10
2018-03-20T11:50:26.800Z,1.00
2018-03-20T11:52:54.748Z,1.10
2018-03-20T11:55:22.393Z,1.03
2018-03-20T11:57:50.635Z,0.90
2018-03-20T12:00:19.183Z,0.93
2018-03-20T12:02:47.421Z,1.00
2018-03-20T12:05:15.027Z,0.97
2018-03-20T12:07:53.595Z,1.23
2018-03-20T12:10:21.212Z,0.87
2018-03-20T12:12:48.870Z,1.00
2018-03-20T12:15:16.488Z,1.30
2018-03-20T12:17:44.266Z,1.13
2018-03-20T12:20:11.926Z,1.10
2018-03-20T12:22:39.942Z,0.90
2018-03-20T12:25:07.939Z,0.93
2018-03-20T12:27:35.555Z,1.30
2018-03-20T12:30:03.231Z,0.90
2018-03-20T12:32:31.594Z,1.30
2018-03-20T12:35:00.151Z,1.07
2018-03-20T12:37:28.405Z,0.90
2018-03-20T12:39:56.036Z,0.80
2018-03-20T12:42:24.420Z,1.10
2018-03-20T12:44:52.848Z,1.00
2018-03-20T12:47:20.468Z,1.30
2018-03-20T12:49:48.170Z,1.03
2018-03-20T12:52:16.594Z,0.90
2018-03-20T12:54:44.983Z,0.83
2018-03-20T12:57:13.361Z,0.90
2018-03-20T12:59:41.754Z,0.80
2018-03-20T13:02:09.387Z,0.97
2018-03-20T13:04:38.107Z,0.97
2018-03-20T13:07:05.703Z,1.00
2018-03-20T13:09:33.355Z,0.70
2018-03-20T13:12:01.688Z,0.90
2018-03-20T13:14:30.215Z,1.00
2018-03-20T13:16:57.874Z,1.00
2018-03-20T13:19:25.489Z,1.10
2018-03-20T13:21:53.903Z,0.83
2018-03-20T13:24:21.508Z,0.80
2018-03-20T13:26:50.615Z,0.77
2018-03-20T13:29:19.053Z,0.77
2018-03-20T13:31:46.665Z,0.90
2018-03-20T13:34:15.046Z,0.97
2018-03-20T13:36:44.181Z,1.00
2018-03-20T13:39:11.789Z,0.70
2018-03-20T13:41:39.410Z,1.00
2018-03-20T13:44:07.048Z,0.80
2018-03-20T13:46:34.747Z,0.90
2018-03-20T13:49:02.508Z,1.10
2018-03-20T13:51:30.754Z,0.80
2018-03-20T13:53:58.363Z,0.70
2018-03-20T13:56:26.008Z,1.00
2018-03-20T13:58:54.353Z,1.00
2018-03-20T14:01:21.989Z,0.80
2018-03-20T14:03:50.811Z,0.67
2018-03-20T14:06:18.415Z,0.70
2018-03-20T14:08:46.589Z,0.80
2018-03-20T14:11:15.043Z,0.90
2018-03-20T14:13:42.675Z,0.90
2018-03-20T14:16:10.329Z,0.80
2018-03-20T14:18:37.940Z,0.97
2018-03-20T14:21:05.595Z,0.83
2018-03-20T14:23:33.234Z,0.80
2018-03-20T14:26:00.867Z,0.87
2018-03-20T14:28:29.299Z,1.10
2018-03-20T14:30:56.918Z,1.00
2018-03-20T14:33:24.537Z,1.13
2018-03-20T14:35:52.212Z,1.00
2018-03-20T14:38:19.836Z,0.90
2018-03-20T14:40:47.500Z,0.80
2018-03-20T14:43:15.123Z,1.00
2018-03-20T14:45:42.770Z,0.60
2018-03-20T14:48:11.198Z,0.80
2018-03-20T14:50:38.803Z,0.90
2018-03-20T14:53:07.346Z,0.90
2018-03-20T14:55:35.007Z,0.80
2018-03-20T14:58:03.017Z,0.90
2018-03-20T15:00:31.410Z,1.07
2018-03-20T15:02:59.429Z,0.90
2018-03-20T15:05:27.909Z,0.70
2018-03-20T15:07:55.530Z,0.63
2018-03-20T15:10:23.142Z,1.03
2018-03-20T15:12:50.995Z,0.90
2018-03-20T15:15:20.113Z,0.90
2018-03-20T15:17:47.729Z,1.00
2018-03-20T15:20:15.355Z,0.80
2018-03-20T15:22:43.792Z,1.00
2018-03-20T15:25:11.403Z,0.80
2018-03-20T15:27:39.803Z,0.80
2018-03-20T15:30:07.433Z,0.80
2018-03-20T15:32:35.825Z,0.80
2018-03-20T15:35:04.605Z,0.73
2018-03-20T15:37:33.043Z,0.80
2018-03-20T15:40:00.717Z,0.73
2018-03-20T15:42:28.319Z,0.90
2018-03-20T15:44:56.862Z,0.80
2018-03-20T15:47:24.703Z,0.70
2018-03-20T15:49:52.311Z,0.70
2018-03-20T15:52:19.915Z,0.70
2018-03-20T15:54:47.584Z,0.70
2018-03-20T15:57:15.199Z,0.70
2018-03-20T15:59:43.675Z,0.70
2018-03-20T16:02:11.345Z,0.73
2018-03-20T16:04:39.782Z,0.60
2018-03-20T16:07:07.413Z,0.90
2018-03-20T16:09:35.111Z,0.80
2018-03-20T16:12:03.413Z,0.70
2018-03-20T16:14:31.779Z,0.70
2018-03-20T16:16:59.433Z,0.50
2018-03-20T16:19:27.071Z,0.90
2018-03-20T16:21:55.821Z,0.53
2018-03-20T16:24:24.236Z,0.83
2018-03-20T16:26:51.872Z,0.87
2018-03-20T16:29:19.596Z,0.57
2018-03-20T16:31:47.258Z,0.70
2018-03-20T16:34:15.676Z,0.97
2018-03-20T16:36:43.284Z,0.70
2018-03-20T16:39:10.914Z,0.77
2018-03-20T16:41:39.025Z,0.80
2018-03-20T16:44:08.037Z,0.90
2018-03-20T16:46:35.838Z,0.80
2018-03-20T16:49:04.268Z,0.70
2018-03-20T16:51:31.898Z,0.70
2018-03-20T16:53:59.557Z,0.70
2018-03-20T16:56:27.157Z,0.40
2018-03-20T16:58:55.906Z,0.80
2018-03-20T17:01:25.016Z,0.93
2018-03-20T17:03:52.886Z,0.77
2018-03-20T17:06:21.305Z,0.77
2018-03-20T17:08:49.704Z,0.63
2018-03-20T17:11:18.123Z,0.80
2018-03-20T17:13:45.759Z,0.90
2018-03-20T17:16:13.776Z,0.70
2018-03-20T17:18:41.422Z,0.60
2018-03-20T17:21:09.555Z,0.50
2018-03-20T17:23:38.345Z,0.70
2018-03-20T17:26:06.060Z,0.77
2018-03-20T17:28:35.218Z,0.80
2018-03-20T17:31:02.909Z,0.70
2018-03-20T17:33:30.908Z,0.90
2018-03-20T17:35:59.288Z,0.87
2018-03-20T17:38:28.441Z,0.70
2018-03-20T17:40:56.122Z,0.70
2018-03-20T17:43:24.400Z,0.77
2018-03-20T17:45:52.781Z,0.87
2018-03-20T17:48:20.541Z,1.10
2018-03-20T17:50:48.201Z,0.70
2018-03-20T17:53:16.273Z,0.70
2018-03-20T17:55:43.945Z,0.70
2018-03-20T17:58:11.930Z,0.70
2018-03-20T18:00:39.677Z,0.93
2018-03-20T18:03:07.341Z,0.70
2018-03-20T18:05:34.969Z,0.90
2018-03-20T18:08:02.579Z,1.03
2018-03-20T18:10:31.010Z,0.80
2018-03-20T18:12:58.626Z,0.70
2018-03-20T18:15:27.636Z,0.83
2018-03-20T18:17:55.281Z,0.57
2018-03-20T18:20:24.282Z,1.00
2018-03-20T18:22:53.540Z,0.57
2018-03-20T18:25:22.677Z,0.50
2018-03-20T18:27:51.556Z,1.10
2018-03-20T18:30:19.589Z,0.80
2018-03-20T18:32:47.864Z,0.80
2018-03-20T18:35:15.518Z,0.57
2018-03-20T18:37:43.151Z,1.00
2018-03-20T18:40:10.747Z,0.90
2018-03-20T18:42:38.849Z,0.90
2018-03-20T18:45:06.861Z,0.67
2018-03-20T18:47:34.934Z,0.90
2018-03-20T18:50:02.554Z,0.70
2018-03-20T18:52:30.303Z,0.70
2018-03-20T18:54:57.942Z,0.80
2018-03-20T18:57:25.575Z,0.80
2018-03-20T18:59:53.926Z,0.63
2018-03-20T19:02:22.164Z,0.83
2018-03-20T19:04:50.589Z,0.60
2018-03-20T19:07:19.024Z,0.70
2018-03-20T19:09:46.638Z,0.70
2018-03-20T19:12:15.010Z,0.90
2018-03-20T19:14:43.412Z,0.77
2018-03-20T19:17:11.068Z,0.60
2018-03-20T19:19:38.771Z,0.50
2018-03-20T19:22:06.495Z,0.80
2018-03-20T19:24:35.109Z,0.70
2018-03-20T19:27:02.846Z,0.70
2018-03-20T19:29:30.912Z,0.60
2018-03-20T19:31:58.528Z,0.53
2018-03-20T19:34:26.161Z,0.70
2018-03-20T19:36:53.826Z,0.70
2018-03-20T19:39:21.446Z,0.90
2018-03-20T19:41:50.587Z,0.63
2018-03-20T19:44:20.572Z,0.87
2018-03-20T19:46:49.514Z,0.83
2018-03-20T19:49:17.253Z,0.77
2018-03-20T19:51:44.855Z,0.50
2018-03-20T19:54:12.513Z,0.73
2018-03-20T19:56:40.767Z,0.50
2018-03-20T19:59:08.544Z,0.80
2018-03-20T20:01:36.923Z,0.80
2018-03-20T20:04:04.531Z,0.50
2018-03-20T20:06:32.506Z,0.57
2018-03-20T20:09:00.119Z,0.43
2018-03-20T20:11:27.791Z,0.83
2018-03-20T20:13:56.811Z,0.60
2018-03-20T20:16:24.425Z,0.70
2018-03-20T20:18:52.058Z,0.70
2018-03-20T20:21:19.691Z,0.77
2018-03-20T20:23:48.230Z,0.80
2018-03-20T20:26:15.843Z,1.00
2018-03-20T20:28:43.507Z,0.70
2018-03-20T20:31:11.107Z,0.87
2018-03-20T20:33:38.779Z,0.43
2018-03-20T20:36:07.482Z,0.67
2018-03-20T20:38:35.521Z,0.77
2018-03-20T20:41:03.154Z,0.60
2018-03-20T20:43:30.800Z,0.70
2018-03-20T20:45:59.450Z,0.60
2018-03-20T20:48:27.082Z,0.63
2018-03-20T20:50:54.768Z,0.80
2018-03-20T20:53:22.374Z,0.60
2018-03-20T20:55:50.075Z,0.73
2018-03-20T20:58:17.675Z,0.90
2018-03-20T21:00:46.726Z,0.50
2018-03-20T21:03:14.358Z,0.83
2018-03-20T21:05:41.971Z,0.70
2018-03-20T21:08:09.649Z,0.70
2018-03-20T21:10:37.291Z,0.97
2018-03-20T21:13:04.891Z,0.77
2018-03-20T21:15:33.304Z,0.93
2018-03-20T21:18:00.901Z,0.90
2018-03-20T21:20:28.531Z,0.60
2018-03-20T21:22:57.284Z,0.97
2018-03-20T21:25:25.087Z,0.80
2018-03-20T21:27:53.206Z,0.80
2018-03-20T21:30:20.788Z,0.83
2018-03-20T21:32:48.461Z,0.70
2018-03-20T21:35:16.054Z,0.87
2018-03-20T21:37:44.340Z,0.83
2018-03-20T21:40:13.079Z,0.70
2018-03-20T21:42:41.449Z,0.90
2018-03-20T21:45:09.070Z,0.80
2018-03-20T21:47:38.013Z,0.70
2018-03-20T21:50:05.696Z,0.47
2018-03-20T21:52:34.181Z,0.60
2018-03-20T21:55:01.945Z,0.73
2018-03-20T21:57:30.320Z,0.80
2018-03-20T21:59:57.959Z,0.87
2018-03-20T22:02:26.159Z,0.97
2018-03-20T22:04:54.550Z,0.73
2018-03-20T22:07:22.202Z,0.60
2018-03-20T22:09:49.807Z,0.80
2018-03-20T22:12:18.204Z,0.60
2018-03-20T22:14:47.893Z,0.67
2018-03-20T22:17:16.273Z,0.57
2018-03-20T22:19:44.732Z,0.60
2018-03-20T22:22:14.103Z,0.70
2018-03-20T22:24:42.490Z,0.57
2018-03-20T22:27:10.874Z,0.83
2018-03-20T22:29:38.735Z,0.70
2018-03-20T22:32:06.348Z,0.43
2018-03-20T22:34:35.546Z,0.60
2018-03-20T22:37:04.511Z,0.57
2018-03-20T22:39:33.477Z,0.70
2018-03-20T22:42:01.110Z,0.60
2018-03-20T22:44:30.344Z,0.53
2018-03-20T22:46:57.995Z,0.53
2018-03-20T22:49:25.595Z,0.80
2018-03-20T22:51:53.232Z,0.77
2018-03-20T22:54:20.857Z,0.60
2018-03-20T22:56:48.889Z,0.50
2018-03-20T22:59:16.546Z,0.50
2018-03-20T23:01:44.175Z,0.60
2018-03-20T23:04:11.775Z,0.87
2018-03-20T23:06:40.192Z,0.50
2018-03-20T23:09:07.877Z,0.63
2018-03-20T23:11:35.474Z,0.70
2018-03-20T23:14:03.131Z,0.70
2018-03-20T23:16:31.917Z,0.93
2018-03-20T23:18:59.518Z,0.70
2018-03-20T23:21:27.147Z,0.63
2018-03-20T23:23:54.793Z,0.67
2018-03-20T23:26:23.270Z,1.13
2018-03-20T23:28:51.681Z,0.80
2018-03-20T23:31:20.078Z,0.53
2018-03-20T23:33:47.702Z,0.60
2018-03-20T23:36:15.303Z,0.60
2018-03-20T23:38:42.930Z,0.67
2018-03-20T23:41:10.544Z,1.33
2018-03-20T23:43:38.563Z,0.60
2018-03-20T23:46:06.226Z,0.50
2018-03-20T23:48:33.848Z,0.73
2018-03-20T23:51:01.526Z,0.60
2018-03-20T23:53:29.168Z,0.70
2018-03-20T23:55:56.786Z,0.60
2018-03-20T23:58:25.729Z,0.73
